Aggeneys Airport


Codes: FAAG/AGZ
Name: Aggeneys Airport
City: Aggeneys
Country: South Africa
Elevation: 2648 ft.

Photos at Aggeneys Airport


   Photos courtesy of SpottingLog. You can add your own sightings and photos by signing up for a free trial today.



No photos found.

Weather at Aggeneys Airport


Time (UTC)DescriptionTempratureWindCloud coverageVisibilityPressureHumidity
13-Jun-2024 03:00Clear Sky11°C4 mph, E0%10000m1024hPa41%
13-Jun-2024 06:00Clear Sky10°C4 mph, NE0%10000m1025hPa44%
13-Jun-2024 09:00Clear Sky17°C7 mph, NE0%10000m1025hPa30%
13-Jun-2024 12:00Clear Sky22°C9 mph, N0%10000m1021hPa23%
13-Jun-2024 15:00Clear Sky21°C4 mph, N0%10000m1021hPa27%
13-Jun-2024 18:00Clear Sky16°C4 mph, E0%10000m1022hPa34%
13-Jun-2024 21:00Clear Sky15°C4 mph, NE0%10000m1022hPa35%
14-Jun-2024 00:00Clear Sky14°C4 mph, NE0%10000m1022hPa39%
14-Jun-2024 03:00Clear Sky13°C4 mph, NE0%10000m1022hPa41%
14-Jun-2024 06:00Clear Sky13°C7 mph, NE1%10000m1023hPa41%
14-Jun-2024 09:00Clear Sky21°C9 mph, N0%10000m1023hPa24%
14-Jun-2024 12:00Clear Sky24°C11 mph, N0%10000m1020hPa18%
14-Jun-2024 15:00Clear Sky23°C7 mph, NE0%10000m1019hPa20%
14-Jun-2024 18:00Clear Sky17°C2 mph, E1%10000m1021hPa27%
14-Jun-2024 21:00Clear Sky16°C4 mph, E0%10000m1021hPa25%
15-Jun-2024 00:00Clear Sky15°C4 mph, NE1%10000m1021hPa25%
15-Jun-2024 03:00Clear Sky14°C7 mph, NE2%10000m1020hPa26%
15-Jun-2024 06:00Clear Sky13°C7 mph, NE3%10000m1021hPa27%
15-Jun-2024 09:00Clear Sky20°C11 mph, NE5%10000m1021hPa17%
15-Jun-2024 12:00Clear Sky23°C13 mph, N5%10000m1019hPa15%
15-Jun-2024 15:00Clear Sky22°C9 mph, NE5%10000m1017hPa18%
15-Jun-2024 18:00Few Clouds19°C9 mph, E20%10000m1019hPa20%
15-Jun-2024 21:00Overcast Clouds17°C9 mph, NE99%10000m1019hPa20%
16-Jun-2024 00:00Overcast Clouds16°C9 mph, NE99%10000m1018hPa21%
16-Jun-2024 03:00Overcast Clouds15°C9 mph, NE100%10000m1018hPa23%
16-Jun-2024 06:00Overcast Clouds14°C9 mph, NE88%10000m1018hPa25%
16-Jun-2024 09:00Overcast Clouds20°C11 mph, NE100%10000m1018hPa18%
16-Jun-2024 12:00Overcast Clouds23°C11 mph, NE100%10000m1015hPa15%
16-Jun-2024 15:00Overcast Clouds22°C7 mph, NE90%10000m1013hPa17%
16-Jun-2024 18:00Overcast Clouds18°C7 mph, NE88%10000m1014hPa19%
16-Jun-2024 21:00Overcast Clouds17°C9 mph, NE97%10000m1015hPa21%
17-Jun-2024 00:00Overcast Clouds16°C11 mph, NE99%10000m1014hPa22%
17-Jun-2024 03:00Scattered Clouds15°C11 mph, NE40%10000m1013hPa24%
17-Jun-2024 06:00Few Clouds13°C9 mph, NE22%10000m1013hPa29%
17-Jun-2024 09:00Clear Sky18°C11 mph, W0%10000m1015hPa20%
17-Jun-2024 12:00Clear Sky21°C22 mph, W0%10000m1013hPa20%
17-Jun-2024 15:00Clear Sky19°C13 mph, W0%10000m1015hPa29%
17-Jun-2024 18:00Clear Sky13°C7 mph, SW0%10000m1018hPa55%
17-Jun-2024 21:00Clear Sky11°C2 mph, SW0%10000m1018hPa66%
18-Jun-2024 00:00Clear Sky10°C2 mph, SE0%10000m1018hPa68%